createdAt,value
2018-01-25T00:00:54.725Z,89.18
2018-01-25T00:01:54.661Z,89.94
2018-01-25T00:02:54.596Z,89.65
2018-01-25T00:03:54.532Z,89.84
2018-01-25T00:04:54.468Z,89.56
2018-01-25T00:05:54.405Z,90.03
2018-01-25T00:06:54.339Z,90.70
2018-01-25T00:07:54.276Z,90.32
2018-01-25T00:08:54.211Z,90.03
2018-01-25T00:09:54.149Z,89.65
2018-01-25T00:10:54.082Z,89.70
2018-01-25T00:11:54.020Z,89.13
2018-01-25T00:12:53.954Z,88.65
2018-01-25T00:13:53.891Z,89.22
2018-01-25T00:14:53.826Z,88.84
2018-01-25T00:15:53.762Z,88.37
2018-01-25T00:16:53.699Z,88.37
2018-01-25T00:17:53.634Z,88.56
2018-01-25T00:18:53.569Z,88.84
2018-01-25T00:19:53.505Z,87.89
2018-01-25T00:20:53.442Z,88.65
2018-01-25T00:21:53.377Z,88.75
2018-01-25T00:22:53.312Z,88.65
2018-01-25T00:23:53.249Z,89.32
2018-01-25T00:24:53.184Z,89.47
2018-01-25T00:25:53.121Z,89.65
2018-01-25T00:26:53.056Z,89.37
2018-01-25T00:27:52.992Z,89.84
2018-01-25T00:28:52.928Z,89.32
2018-01-25T00:29:52.864Z,88.93
2018-01-25T00:30:52.802Z,89.13
2018-01-25T00:31:52.736Z,89.03
2018-01-25T00:32:52.726Z,89.27
2018-01-25T00:33:52.608Z,89.84
2018-01-25T00:34:52.544Z,88.89
2018-01-25T00:35:52.480Z,88.51
2018-01-25T00:36:52.415Z,89.27
2018-01-25T00:37:52.369Z,89.41
2018-01-25T00:38:52.286Z,88.84
2018-01-25T00:39:52.223Z,88.56
2018-01-25T00:40:52.159Z,89.13
2018-01-25T00:41:52.095Z,88.93
2018-01-25T00:42:52.031Z,87.98
2018-01-25T00:43:51.968Z,88.65
2018-01-25T00:44:51.903Z,88.08
2018-01-25T00:45:51.838Z,88.65
2018-01-25T00:46:51.774Z,88.08
2018-01-25T00:47:51.710Z,87.79
2018-01-25T00:48:51.649Z,88.08
2018-01-25T00:49:51.583Z,87.23
2018-01-25T00:50:51.518Z,87.41
2018-01-25T00:51:51.454Z,87.79
2018-01-25T00:52:51.391Z,88.18
2018-01-25T00:53:51.326Z,87.51
2018-01-25T00:54:51.261Z,87.89
2018-01-25T00:55:51.197Z,87.98
2018-01-25T00:56:51.133Z,87.41
2018-01-25T00:57:51.069Z,87.60
2018-01-25T00:58:51.006Z,87.70
2018-01-25T00:59:50.941Z,87.51
2018-01-25T01:00:50.879Z,87.79
2018-01-25T01:01:50.813Z,87.98
2018-01-25T01:02:50.749Z,87.23
2018-01-25T01:03:50.686Z,87.79
2018-01-25T01:04:50.620Z,87.89
2018-01-25T01:05:50.556Z,86.60
2018-01-25T01:06:50.493Z,86.51
2018-01-25T01:07:50.428Z,86.41
2018-01-25T01:08:50.365Z,86.88
2018-01-25T01:09:50.302Z,86.94
2018-01-25T01:10:50.235Z,85.93
2018-01-25T01:11:50.174Z,86.32
2018-01-25T01:12:50.109Z,86.69
2018-01-25T01:13:50.045Z,87.23
2018-01-25T01:14:49.982Z,86.84
2018-01-25T01:15:49.919Z,86.22
2018-01-25T01:16:49.857Z,85.93
2018-01-25T01:17:49.789Z,86.65
2018-01-25T01:18:49.724Z,86.36
2018-01-25T01:19:49.660Z,86.41
2018-01-25T01:20:49.597Z,86.12
2018-01-25T01:21:49.533Z,86.08
2018-01-25T01:22:49.468Z,85.99
2018-01-25T01:23:49.406Z,86.46
2018-01-25T01:24:49.342Z,86.46
2018-01-25T01:25:49.278Z,86.55
2018-01-25T01:26:49.213Z,85.99
2018-01-25T01:27:49.150Z,86.32
2018-01-25T01:28:49.104Z,85.70
2018-01-25T01:29:49.021Z,85.84
2018-01-25T01:30:48.957Z,85.64
2018-01-25T01:31:48.893Z,85.80
2018-01-25T01:32:48.829Z,85.93
2018-01-25T01:33:48.768Z,85.27
2018-01-25T01:34:48.701Z,85.84
2018-01-25T01:35:48.659Z,85.93
2018-01-25T01:36:48.573Z,86.22
2018-01-25T01:37:48.510Z,86.51
2018-01-25T01:38:48.444Z,85.89
2018-01-25T01:39:48.382Z,86.55
2018-01-25T01:40:48.318Z,85.99
2018-01-25T01:41:48.254Z,86.36
2018-01-25T01:42:48.190Z,86.36
2018-01-25T01:43:48.126Z,86.51
2018-01-25T01:44:48.062Z,86.46
2018-01-25T01:45:47.999Z,87.23
2018-01-25T01:46:47.937Z,87.23
2018-01-25T01:47:47.872Z,86.46
2018-01-25T01:48:47.807Z,86.03
2018-01-25T01:49:47.746Z,86.03
2018-01-25T01:50:47.679Z,86.32
2018-01-25T01:51:47.615Z,86.22
2018-01-25T01:52:47.552Z,85.55
2018-01-25T01:53:47.489Z,85.17
2018-01-25T01:54:47.425Z,85.74
2018-01-25T01:55:47.363Z,85.84
2018-01-25T01:56:47.297Z,85.93
2018-01-25T01:57:47.234Z,85.27
2018-01-25T01:58:47.172Z,85.64
2018-01-25T01:59:47.105Z,86.22
2018-01-25T02:00:47.043Z,85.55
2018-01-25T02:01:46.979Z,85.36
2018-01-25T02:02:46.915Z,85.55
2018-01-25T02:03:46.851Z,85.74
2018-01-25T02:04:46.789Z,85.55
2018-01-25T02:05:46.726Z,85.64
2018-01-25T02:06:46.660Z,85.46
2018-01-25T02:07:46.598Z,85.84
2018-01-25T02:08:46.534Z,85.27
2018-01-25T02:09:46.471Z,86.03
2018-01-25T02:10:46.407Z,85.64
2018-01-25T02:11:46.343Z,85.17
2018-01-25T02:12:46.282Z,85.74
2018-01-25T02:13:46.219Z,86.22
2018-01-25T02:14:46.154Z,85.93
2018-01-25T02:15:46.091Z,85.36
2018-01-25T02:16:46.027Z,85.74
2018-01-25T02:17:45.964Z,85.64
2018-01-25T02:18:45.899Z,85.93
2018-01-25T02:19:45.836Z,85.36
2018-01-25T02:20:45.773Z,86.03
2018-01-25T02:21:45.710Z,85.93
2018-01-25T02:22:45.645Z,86.12
2018-01-25T02:23:45.582Z,85.36
2018-01-25T02:24:45.518Z,85.74
2018-01-25T02:25:45.456Z,85.93
2018-01-25T02:26:45.396Z,86.12
2018-01-25T02:27:45.329Z,85.84
2018-01-25T02:28:45.268Z,86.22
2018-01-25T02:29:45.203Z,85.55
2018-01-25T02:30:45.138Z,85.64
2018-01-25T02:31:45.075Z,85.27
2018-01-25T02:32:45.012Z,84.69
2018-01-25T02:33:44.948Z,85.08
2018-01-25T02:34:44.885Z,84.60
2018-01-25T02:35:44.821Z,84.60
2018-01-25T02:36:44.757Z,85.46
2018-01-25T02:37:44.697Z,85.64
2018-01-25T02:38:44.632Z,86.03
2018-01-25T02:39:44.567Z,85.84
2018-01-25T02:40:44.506Z,85.93
2018-01-25T02:41:44.442Z,85.36
2018-01-25T02:42:44.376Z,85.55
2018-01-25T02:43:44.314Z,85.17
2018-01-25T02:44:44.256Z,85.36
2018-01-25T02:45:44.194Z,84.60
2018-01-25T02:46:44.125Z,84.22
2018-01-25T02:47:44.061Z,83.74
2018-01-25T02:48:44.001Z,84.88
2018-01-25T02:49:43.935Z,84.69
2018-01-25T02:50:43.871Z,83.74
2018-01-25T02:51:43.824Z,84.22
2018-01-25T02:52:43.746Z,83.93
2018-01-25T02:53:43.682Z,85.08
2018-01-25T02:54:43.617Z,84.03
2018-01-25T02:55:43.556Z,83.93
2018-01-25T02:56:43.493Z,83.93
2018-01-25T02:57:43.430Z,83.55
2018-01-25T02:58:43.568Z,84.98
2018-01-25T02:59:43.302Z,84.22
2018-01-25T03:00:43.240Z,84.88
2018-01-25T03:01:43.176Z,84.88
2018-01-25T03:02:43.111Z,84.98
2018-01-25T03:03:43.051Z,84.88
2018-01-25T03:04:42.985Z,85.55
2018-01-25T03:05:42.921Z,85.17
2018-01-25T03:06:42.858Z,85.46
2018-01-25T03:07:42.796Z,84.88
2018-01-25T03:08:42.731Z,84.60
2018-01-25T03:09:42.671Z,84.31
2018-01-25T03:10:42.604Z,84.12
2018-01-25T03:11:42.542Z,83.93
2018-01-25T03:12:42.495Z,84.12
2018-01-25T03:13:42.416Z,83.93
2018-01-25T03:14:42.352Z,83.84
2018-01-25T03:15:42.289Z,83.07
2018-01-25T03:16:42.226Z,83.02
2018-01-25T03:17:42.163Z,83.69
2018-01-25T03:18:42.099Z,83.17
2018-01-25T03:19:42.036Z,84.03
2018-01-25T03:20:41.972Z,83.55
2018-01-25T03:21:41.913Z,83.84
2018-01-25T03:22:41.847Z,84.41
2018-01-25T03:23:41.783Z,82.98
2018-01-25T03:24:41.721Z,83.65
2018-01-25T03:25:41.658Z,84.31
2018-01-25T03:26:41.595Z,84.31
2018-01-25T03:27:41.533Z,84.03
2018-01-25T03:28:41.468Z,83.84
2018-01-25T03:29:41.405Z,84.31
2018-01-25T03:30:41.342Z,84.03
2018-01-25T03:31:41.279Z,84.12
2018-01-25T03:32:41.215Z,83.93
2018-01-25T03:33:41.475Z,83.65
2018-01-25T03:34:41.089Z,83.55
2018-01-25T03:35:41.026Z,83.45
2018-01-25T03:36:40.963Z,83.65
2018-01-25T03:37:40.900Z,84.12
2018-01-25T03:38:40.836Z,84.60
2018-01-25T03:39:40.774Z,85.17
2018-01-25T03:40:40.711Z,84.22
2018-01-25T03:41:40.648Z,84.22
2018-01-25T03:42:40.583Z,84.60
2018-01-25T03:43:40.521Z,83.93
2018-01-25T03:44:40.459Z,83.45
2018-01-25T03:45:40.395Z,83.84
2018-01-25T03:46:40.331Z,83.17
2018-01-25T03:47:40.272Z,82.89
2018-01-25T03:48:40.206Z,83.65
2018-01-25T03:49:40.146Z,83.84
2018-01-25T03:50:40.079Z,83.55
2018-01-25T03:51:40.017Z,84.03
2018-01-25T03:52:39.952Z,83.84
2018-01-25T03:53:39.891Z,83.93
2018-01-25T03:54:39.827Z,83.84
2018-01-25T03:55:39.763Z,83.65
2018-01-25T03:56:39.701Z,83.84
2018-01-25T03:57:39.638Z,83.65
2018-01-25T03:58:39.575Z,83.26
2018-01-25T03:59:39.516Z,83.26
2018-01-25T04:00:39.449Z,83.74
2018-01-25T04:01:39.386Z,82.98
2018-01-25T04:02:39.322Z,84.12
2018-01-25T04:03:39.260Z,84.41
2018-01-25T04:04:39.197Z,83.26
2018-01-25T04:05:39.134Z,84.31
2018-01-25T04:06:39.070Z,84.22
2018-01-25T04:07:39.008Z,83.93
2018-01-25T04:08:38.945Z,84.22
2018-01-25T04:09:38.882Z,84.60
2018-01-25T04:10:38.817Z,83.93
2018-01-25T04:11:38.755Z,83.36
2018-01-25T04:12:38.693Z,84.41
2018-01-25T04:13:38.629Z,84.03
2018-01-25T04:14:38.768Z,84.88
2018-01-25T04:15:38.508Z,84.88
2018-01-25T04:16:38.440Z,84.69
2018-01-25T04:17:38.377Z,84.60
2018-01-25T04:18:38.315Z,84.88
2018-01-25T04:19:38.251Z,84.12
2018-01-25T04:20:38.188Z,84.88
2018-01-25T04:21:38.125Z,84.31
2018-01-25T04:22:38.062Z,84.98
2018-01-25T04:23:37.999Z,84.60
2018-01-25T04:24:37.937Z,84.79
2018-01-25T04:25:37.873Z,84.12
2018-01-25T04:26:37.864Z,84.69
2018-01-25T04:27:37.746Z,83.84
2018-01-25T04:28:37.683Z,84.41
2018-01-25T04:29:37.640Z,85.17
2018-01-25T04:30:37.558Z,85.46
2018-01-25T04:31:37.494Z,84.88
2018-01-25T04:32:37.431Z,84.79
2018-01-25T04:33:37.369Z,85.27
2018-01-25T04:34:37.305Z,84.50
2018-01-25T04:35:37.244Z,84.12
2018-01-25T04:36:37.180Z,83.78
2018-01-25T04:37:37.116Z,84.88
2018-01-25T04:38:37.053Z,83.36
2018-01-25T04:39:36.990Z,84.12
2018-01-25T04:40:36.931Z,84.03
2018-01-25T04:41:36.864Z,83.74
2018-01-25T04:42:36.802Z,83.02
2018-01-25T04:43:36.737Z,83.84
2018-01-25T04:44:36.674Z,84.69
2018-01-25T04:45:36.613Z,84.60
2018-01-25T04:46:36.549Z,84.22
2018-01-25T04:47:36.485Z,85.08
2018-01-25T04:48:36.423Z,85.64
2018-01-25T04:49:36.360Z,84.41
2018-01-25T04:50:36.295Z,85.36
2018-01-25T04:51:36.233Z,84.88
2018-01-25T04:52:36.172Z,84.79
2018-01-25T04:53:36.107Z,84.79
2018-01-25T04:54:36.044Z,85.08
2018-01-25T04:55:35.981Z,84.98
2018-01-25T04:56:35.918Z,84.88
2018-01-25T04:57:35.856Z,85.17
2018-01-25T04:58:35.793Z,85.55
2018-01-25T04:59:35.729Z,84.50
2018-01-25T05:00:35.665Z,84.88
2018-01-25T05:01:35.603Z,84.79
2018-01-25T05:02:35.539Z,84.22
2018-01-25T05:03:35.477Z,84.12
2018-01-25T05:04:35.414Z,84.45
2018-01-25T05:05:35.351Z,84.41
2018-01-25T05:06:35.287Z,84.98
2018-01-25T05:07:35.225Z,84.88
2018-01-25T05:08:35.163Z,85.55
2018-01-25T05:09:35.099Z,85.46
2018-01-25T05:10:35.035Z,85.74
2018-01-25T05:11:34.973Z,85.84
2018-01-25T05:12:34.910Z,85.36
2018-01-25T05:13:34.847Z,86.03
2018-01-25T05:14:34.793Z,86.22
2018-01-25T05:15:34.720Z,86.41
2018-01-25T05:16:34.658Z,85.84
2018-01-25T05:17:34.597Z,87.27
2018-01-25T05:18:34.531Z,87.84
2018-01-25T05:19:34.468Z,87.74
2018-01-25T05:20:34.408Z,88.89
2018-01-25T05:21:34.343Z,88.70
2018-01-25T05:22:34.279Z,88.98
2018-01-25T05:23:34.216Z,88.56
2018-01-25T05:24:34.152Z,89.13
2018-01-25T05:25:34.090Z,89.89
2018-01-25T05:26:34.026Z,89.79
2018-01-25T05:27:33.963Z,89.32
2018-01-25T05:28:33.900Z,89.03
2018-01-25T05:29:33.838Z,88.84
2018-01-25T05:30:33.773Z,89.32
2018-01-25T05:31:33.712Z,88.93
2018-01-25T05:32:33.646Z,89.61
2018-01-25T05:33:33.585Z,89.13
2018-01-25T05:34:33.520Z,89.13
2018-01-25T05:35:33.461Z,88.56
2018-01-25T05:36:33.394Z,88.22
2018-01-25T05:37:33.330Z,89.03
2018-01-25T05:38:33.268Z,87.89
2018-01-25T05:39:33.203Z,88.98
2018-01-25T05:40:33.140Z,88.89
2018-01-25T05:41:33.077Z,88.12
2018-01-25T05:42:33.014Z,88.79
2018-01-25T05:43:32.950Z,88.46
2018-01-25T05:44:32.887Z,89.03
2018-01-25T05:45:32.825Z,88.46
2018-01-25T05:46:32.759Z,89.26
2018-01-25T05:47:32.696Z,88.75
2018-01-25T05:48:32.637Z,88.70
2018-01-25T05:49:32.569Z,88.89
2018-01-25T05:50:32.507Z,87.93
2018-01-25T05:51:32.443Z,87.84
2018-01-25T05:52:32.380Z,88.89
2018-01-25T05:53:32.317Z,88.12
2018-01-25T05:54:32.253Z,88.70
2018-01-25T05:55:32.189Z,88.31
2018-01-25T05:56:32.129Z,88.70
2018-01-25T05:57:32.063Z,88.60
2018-01-25T05:58:31.999Z,88.60
2018-01-25T05:59:31.936Z,88.98
2018-01-25T06:00:31.872Z,89.07
2018-01-25T06:01:31.809Z,89.75
2018-01-25T06:02:31.746Z,90.12
2018-01-25T06:03:31.682Z,90.03
2018-01-25T06:04:31.618Z,89.84
2018-01-25T06:05:31.555Z,89.94
2018-01-25T06:06:31.491Z,90.79
2018-01-25T06:07:31.427Z,89.84
2018-01-25T06:08:31.365Z,89.94
2018-01-25T06:09:31.301Z,90.12
2018-01-25T06:10:31.236Z,90.12
2018-01-25T06:11:31.175Z,90.03
2018-01-25T06:12:31.110Z,90.41
2018-01-25T06:13:31.048Z,89.84
2018-01-25T06:14:30.983Z,90.31
2018-01-25T06:15:30.928Z,89.94
2018-01-25T06:16:30.858Z,90.79
2018-01-25T06:17:30.795Z,91.46
2018-01-25T06:18:30.732Z,92.13
2018-01-25T06:19:30.668Z,91.03
2018-01-25T06:20:30.605Z,91.41
2018-01-25T06:21:30.540Z,91.51
2018-01-25T06:22:30.477Z,91.65
2018-01-25T06:23:30.414Z,92.18
2018-01-25T06:24:30.350Z,91.79
2018-01-25T06:25:30.289Z,91.79
2018-01-25T06:26:30.223Z,92.46
2018-01-25T06:27:30.160Z,91.22
2018-01-25T06:28:30.097Z,91.60
2018-01-25T06:29:30.036Z,92.08
2018-01-25T06:30:29.971Z,92.08
2018-01-25T06:31:29.907Z,92.46
2018-01-25T06:32:29.846Z,90.89
2018-01-25T06:33:29.781Z,91.31
2018-01-25T06:34:29.717Z,91.03
2018-01-25T06:35:29.653Z,91.60
2018-01-25T06:36:29.590Z,91.17
2018-01-25T06:37:29.645Z,91.31
2018-01-25T06:38:29.463Z,91.41
2018-01-25T06:39:29.400Z,90.84
2018-01-25T06:40:29.336Z,90.56
2018-01-25T06:41:29.273Z,90.70
2018-01-25T06:42:29.209Z,90.79
2018-01-25T06:43:29.147Z,91.17
2018-01-25T06:44:29.082Z,90.79
2018-01-25T06:45:29.024Z,90.60
2018-01-25T06:46:28.956Z,91.08
2018-01-25T06:47:28.892Z,89.94
2018-01-25T06:48:28.832Z,89.65
2018-01-25T06:49:28.786Z,89.36
2018-01-25T06:50:28.701Z,89.55
2018-01-25T06:51:28.639Z,89.07
2018-01-25T06:52:28.574Z,89.65
2018-01-25T06:53:28.512Z,90.31
2018-01-25T06:54:28.449Z,90.79
2018-01-25T06:55:28.408Z,90.50
2018-01-25T06:56:28.323Z,90.41
2018-01-25T06:57:28.259Z,91.17
2018-01-25T06:58:28.194Z,91.17
2018-01-25T06:59:28.137Z,90.89
2018-01-25T07:00:28.068Z,91.08
2018-01-25T07:01:28.005Z,91.31
2018-01-25T07:02:27.940Z,91.51
2018-01-25T07:03:27.876Z,92.08
2018-01-25T07:04:27.814Z,92.27
2018-01-25T07:05:27.750Z,92.32
2018-01-25T07:06:27.687Z,91.70
2018-01-25T07:07:27.624Z,92.55
2018-01-25T07:08:27.560Z,92.46
2018-01-25T07:09:27.498Z,93.03
2018-01-25T07:10:27.434Z,92.55
2018-01-25T07:11:27.371Z,92.55
2018-01-25T07:12:27.308Z,93.22
2018-01-25T07:13:27.245Z,93.32
2018-01-25T07:14:27.180Z,92.41
2018-01-25T07:15:27.117Z,93.32
2018-01-25T07:16:27.058Z,93.32
2018-01-25T07:17:26.991Z,93.13
2018-01-25T07:18:26.927Z,92.65
2018-01-25T07:19:26.864Z,93.79
2018-01-25T07:20:26.803Z,93.13
2018-01-25T07:21:26.738Z,92.55
2018-01-25T07:22:26.674Z,92.74
2018-01-25T07:23:26.614Z,92.08
2018-01-25T07:24:26.549Z,91.89
2018-01-25T07:25:26.485Z,91.55
2018-01-25T07:26:26.420Z,91.17
2018-01-25T07:27:26.359Z,90.70
2018-01-25T07:28:26.294Z,91.08
2018-01-25T07:29:26.230Z,91.08
2018-01-25T07:30:26.171Z,90.03
2018-01-25T07:31:26.104Z,90.70
2018-01-25T07:32:26.041Z,90.12
2018-01-25T07:33:25.978Z,89.75
2018-01-25T07:34:25.914Z,89.36
2018-01-25T07:35:25.852Z,89.36
2018-01-25T07:36:25.788Z,89.17
2018-01-25T07:37:25.725Z,89.46
2018-01-25T07:38:25.661Z,89.94
2018-01-25T07:39:25.599Z,89.65
2018-01-25T07:40:25.535Z,90.03
2018-01-25T07:41:25.472Z,89.84
2018-01-25T07:42:25.408Z,89.55
2018-01-25T07:43:25.345Z,89.94
2018-01-25T07:44:25.284Z,89.84
2018-01-25T07:45:25.219Z,89.55
2018-01-25T07:46:25.155Z,89.94
2018-01-25T07:47:25.093Z,88.60
2018-01-25T07:48:25.032Z,89.17
2018-01-25T07:49:24.967Z,89.07
2018-01-25T07:50:24.904Z,89.46
2018-01-25T07:51:25.163Z,90.41
2018-01-25T07:52:24.777Z,90.31
2018-01-25T07:53:24.715Z,89.55
2018-01-25T07:54:24.704Z,89.36
2018-01-25T07:55:24.588Z,88.51
2018-01-25T07:56:24.523Z,88.70
2018-01-25T07:57:24.463Z,88.79
2018-01-25T07:58:24.398Z,88.89
2018-01-25T07:59:24.336Z,88.98
2018-01-25T08:00:24.273Z,88.51
2018-01-25T08:01:24.211Z,88.89
2018-01-25T08:02:24.146Z,89.65
2018-01-25T08:03:24.083Z,88.98
2018-01-25T08:04:24.021Z,88.89
2018-01-25T08:05:23.958Z,89.46
2018-01-25T08:06:23.894Z,88.70
2018-01-25T08:07:23.833Z,88.70
2018-01-25T08:08:23.768Z,88.79
2018-01-25T08:09:23.711Z,89.36
2018-01-25T08:10:23.643Z,88.89
2018-01-25T08:11:23.580Z,88.70
2018-01-25T08:12:23.522Z,88.79
2018-01-25T08:13:23.454Z,88.51
2018-01-25T08:14:23.390Z,88.70
2018-01-25T08:15:23.328Z,88.98
2018-01-25T08:16:23.264Z,89.26
2018-01-25T08:17:23.207Z,88.60
2018-01-25T08:18:23.140Z,87.84
2018-01-25T08:19:23.076Z,88.70
2018-01-25T08:20:23.301Z,88.70
2018-01-25T08:21:22.951Z,88.51
2018-01-25T08:22:22.887Z,88.12
2018-01-25T08:23:22.825Z,88.60
2018-01-25T08:24:22.762Z,89.17
2018-01-25T08:25:22.699Z,87.74
2018-01-25T08:26:22.641Z,88.51
2018-01-25T08:27:22.573Z,86.79
2018-01-25T08:28:22.511Z,87.74
2018-01-25T08:29:22.450Z,87.74
2018-01-25T08:30:22.388Z,86.98
2018-01-25T08:31:22.324Z,87.36
2018-01-25T08:32:22.260Z,87.07
2018-01-25T08:33:22.197Z,87.55
2018-01-25T08:34:22.134Z,87.74
2018-01-25T08:35:22.072Z,86.79
2018-01-25T08:36:22.008Z,86.98
2018-01-25T08:37:21.948Z,86.88
2018-01-25T08:38:21.884Z,87.84
2018-01-25T08:39:21.821Z,88.12
2018-01-25T08:40:21.759Z,87.17
2018-01-25T08:41:21.697Z,86.12
2018-01-25T08:42:21.633Z,86.60
2018-01-25T08:43:21.571Z,86.79
2018-01-25T08:44:21.507Z,86.98
2018-01-25T08:45:21.446Z,88.22
2018-01-25T08:46:21.384Z,88.70
2018-01-25T08:47:21.320Z,88.70
2018-01-25T08:48:21.257Z,88.41
2018-01-25T08:49:21.195Z,87.27
2018-01-25T08:50:21.132Z,87.07
2018-01-25T08:51:21.070Z,86.03
2018-01-25T08:52:21.007Z,87.17
2018-01-25T08:53:20.944Z,86.32
2018-01-25T08:54:20.882Z,86.07
2018-01-25T08:55:20.819Z,87.12
2018-01-25T08:56:20.758Z,86.74
2018-01-25T08:57:20.695Z,85.88
2018-01-25T08:58:20.631Z,86.83
2018-01-25T08:59:20.568Z,87.31
2018-01-25T09:00:20.563Z,87.12
2018-01-25T09:01:20.444Z,87.31
2018-01-25T09:02:20.384Z,88.36
2018-01-25T09:03:20.320Z,87.69
2018-01-25T09:04:20.256Z,86.83
2018-01-25T09:05:20.197Z,88.17
2018-01-25T09:06:20.132Z,86.55
2018-01-25T09:07:20.072Z,86.93
2018-01-25T09:08:20.036Z,86.65
2018-01-25T09:09:19.995Z,86.45
2018-01-25T09:10:19.882Z,86.26
2018-01-25T09:11:19.819Z,86.26
2018-01-25T09:12:19.757Z,85.50
2018-01-25T09:13:19.695Z,85.97
2018-01-25T09:14:19.632Z,87.21
2018-01-25T09:15:19.573Z,87.02
2018-01-25T09:16:19.507Z,86.55
2018-01-25T09:17:19.458Z,85.60
2018-01-25T09:18:19.398Z,85.88
2018-01-25T09:19:19.504Z,86.16
2018-01-25T09:20:19.259Z,85.97
2018-01-25T09:21:19.197Z,86.07
2018-01-25T09:22:19.187Z,85.97
2018-01-25T09:23:19.073Z,85.97
2018-01-25T09:24:19.010Z,85.88
2018-01-25T09:25:18.947Z,85.93
2018-01-25T09:26:18.886Z,85.54
2018-01-25T09:27:18.823Z,86.11
2018-01-25T09:28:18.762Z,86.21
2018-01-25T09:29:18.700Z,86.40
2018-01-25T09:30:18.638Z,86.69
2018-01-25T09:31:18.575Z,86.30
2018-01-25T09:32:18.517Z,85.64
2018-01-25T09:33:18.450Z,85.45
2018-01-25T09:34:18.387Z,85.83
2018-01-25T09:35:18.330Z,86.11
2018-01-25T09:36:18.265Z,86.11
2018-01-25T09:37:18.202Z,85.64
2018-01-25T09:38:18.140Z,86.30
2018-01-25T09:39:18.079Z,86.30
2018-01-25T09:40:18.017Z,86.21
2018-01-25T09:41:17.957Z,86.98
2018-01-25T09:42:17.893Z,86.88
2018-01-25T09:43:17.867Z,87.07
2018-01-25T09:44:17.770Z,88.21
2018-01-25T09:45:17.709Z,88.69
2018-01-25T09:46:17.645Z,88.31
2018-01-25T09:47:17.585Z,88.88
2018-01-25T09:48:17.523Z,88.98
2018-01-25T09:49:17.461Z,88.59
2018-01-25T09:50:17.399Z,88.59
2018-01-25T09:51:17.337Z,89.36
2018-01-25T09:52:17.276Z,89.54
2018-01-25T09:53:17.215Z,88.98
2018-01-25T09:54:17.192Z,89.64
2018-01-25T09:55:17.090Z,89.74
2018-01-25T09:56:17.036Z,89.83
2018-01-25T09:57:16.967Z,89.54
2018-01-25T09:58:16.905Z,89.93
2018-01-25T09:59:16.843Z,90.12
2018-01-25T10:00:16.782Z,89.93
2018-01-25T10:01:16.720Z,90.12
2018-01-25T10:02:16.658Z,90.41
2018-01-25T10:03:16.597Z,90.03
2018-01-25T10:04:16.536Z,90.12
2018-01-25T10:05:16.473Z,90.03
2018-01-25T10:06:16.411Z,90.88
2018-01-25T10:07:16.351Z,90.50
2018-01-25T10:08:16.288Z,90.03
2018-01-25T10:09:16.228Z,90.03
2018-01-25T10:10:16.208Z,90.03
2018-01-25T10:11:16.103Z,89.93
2018-01-25T10:12:16.043Z,89.54
2018-01-25T10:13:15.982Z,90.41
2018-01-25T10:14:15.920Z,89.93
2018-01-25T10:15:15.858Z,90.12
2018-01-25T10:16:15.798Z,89.83
2018-01-25T10:17:15.735Z,89.74
2018-01-25T10:18:15.673Z,90.41
2018-01-25T10:19:15.612Z,90.03
2018-01-25T10:20:15.551Z,89.54
2018-01-25T10:21:15.490Z,90.22
2018-01-25T10:22:15.428Z,90.22
2018-01-25T10:23:15.406Z,90.03
2018-01-25T10:24:15.307Z,89.64
2018-01-25T10:25:15.245Z,90.50
2018-01-25T10:26:15.183Z,90.22
2018-01-25T10:27:15.123Z,90.41
2018-01-25T10:28:15.063Z,90.41
2018-01-25T10:29:15.000Z,90.41
2018-01-25T10:30:14.939Z,90.88
2018-01-25T10:31:14.878Z,90.22
2018-01-25T10:32:14.816Z,90.31
2018-01-25T10:33:14.756Z,90.59
2018-01-25T10:34:14.694Z,90.79
2018-01-25T10:35:14.632Z,89.93
2018-01-25T10:36:14.610Z,89.74
2018-01-25T10:37:14.510Z,90.03
2018-01-25T10:38:14.448Z,90.03
2018-01-25T10:39:14.393Z,89.93
2018-01-25T10:40:14.327Z,89.83
2018-01-25T10:41:14.266Z,89.36
2018-01-25T10:42:14.208Z,88.59
2018-01-25T10:43:14.143Z,89.93
2018-01-25T10:44:14.083Z,89.93
2018-01-25T10:45:14.021Z,89.36
2018-01-25T10:46:13.960Z,89.93
2018-01-25T10:47:13.899Z,90.12
2018-01-25T10:48:13.838Z,89.93
2018-01-25T10:49:13.777Z,89.17
2018-01-25T10:50:13.716Z,88.88
2018-01-25T10:51:13.655Z,89.83
2018-01-25T10:52:13.594Z,89.50
2018-01-25T10:53:13.532Z,89.26
2018-01-25T10:54:13.472Z,89.17
2018-01-25T10:55:13.412Z,89.21
2018-01-25T10:56:13.697Z,89.74
2018-01-25T10:57:13.289Z,89.83
2018-01-25T10:58:13.232Z,89.45
2018-01-25T10:59:13.167Z,89.97
2018-01-25T11:00:13.106Z,90.36
2018-01-25T11:01:13.047Z,90.41
2018-01-25T11:02:12.984Z,90.22
2018-01-25T11:03:12.923Z,90.79
2018-01-25T11:04:12.862Z,90.26
2018-01-25T11:05:12.801Z,90.07
2018-01-25T11:06:12.741Z,90.55
2018-01-25T11:07:12.680Z,90.55
2018-01-25T11:08:12.618Z,91.36
2018-01-25T11:09:12.559Z,90.98
2018-01-25T11:10:12.498Z,90.22
2018-01-25T11:11:12.437Z,89.93
2018-01-25T11:12:12.383Z,90.41
2018-01-25T11:13:12.315Z,90.03
2018-01-25T11:14:12.254Z,89.74
2018-01-25T11:15:12.194Z,90.31
2018-01-25T11:16:12.132Z,90.07
2018-01-25T11:17:12.072Z,89.93
2018-01-25T11:18:12.011Z,89.50
2018-01-25T11:19:11.949Z,90.17
2018-01-25T11:20:11.889Z,89.78
2018-01-25T11:21:11.829Z,90.17
2018-01-25T11:22:11.767Z,89.54
2018-01-25T11:23:11.705Z,89.54
2018-01-25T11:24:11.644Z,90.26
2018-01-25T11:25:11.586Z,90.69
2018-01-25T11:26:11.522Z,89.40
2018-01-25T11:27:11.462Z,90.41
2018-01-25T11:28:11.401Z,89.93
2018-01-25T11:29:11.339Z,90.41
2018-01-25T11:30:11.278Z,90.12
2018-01-25T11:31:11.238Z,91.07
2018-01-25T11:32:11.158Z,91.12
2018-01-25T11:33:11.097Z,90.64
2018-01-25T11:34:11.036Z,90.41
2018-01-25T11:35:10.975Z,91.21
2018-01-25T11:36:10.916Z,90.64
2018-01-25T11:37:10.853Z,90.45
2018-01-25T11:38:10.793Z,90.45
2018-01-25T11:39:10.731Z,91.31
2018-01-25T11:40:10.693Z,90.26
2018-01-25T11:41:10.612Z,90.07
2018-01-25T11:42:10.548Z,90.55
2018-01-25T11:43:10.488Z,88.92
2018-01-25T11:44:10.435Z,89.50
2018-01-25T11:45:10.367Z,89.50
2018-01-25T11:46:10.355Z,89.31
2018-01-25T11:47:10.252Z,89.02
2018-01-25T11:48:10.187Z,88.92
2018-01-25T11:49:10.124Z,89.31
2018-01-25T11:50:10.062Z,89.88
2018-01-25T11:51:10.003Z,89.78
2018-01-25T11:52:09.942Z,90.17
2018-01-25T11:53:09.920Z,87.87
2018-01-25T11:54:09.824Z,86.25
2018-01-25T11:55:09.759Z,86.16
2018-01-25T11:56:09.700Z,86.63
2018-01-25T11:57:09.638Z,86.16
2018-01-25T11:58:09.578Z,85.87
2018-01-25T11:59:09.516Z,85.21
2018-01-25T12:00:09.457Z,84.82
2018-01-25T12:01:09.395Z,86.25
2018-01-25T12:02:09.335Z,83.29
2018-01-25T12:03:09.274Z,84.53
2018-01-25T12:04:09.213Z,83.87
2018-01-25T12:05:09.153Z,84.63
2018-01-25T12:06:09.093Z,84.34
2018-01-25T12:07:09.031Z,83.11
2018-01-25T12:08:08.972Z,82.82
2018-01-25T12:09:08.911Z,82.87
2018-01-25T12:10:08.851Z,83.58
2018-01-25T12:11:08.790Z,83.29
2018-01-25T12:12:08.729Z,84.06
2018-01-25T12:13:08.670Z,83.20
2018-01-25T12:14:08.608Z,83.48
2018-01-25T12:15:08.546Z,84.72
2018-01-25T12:16:08.486Z,84.92
2018-01-25T12:17:08.425Z,84.82
2018-01-25T12:18:08.363Z,85.39
2018-01-25T12:19:08.304Z,83.67
2018-01-25T12:20:08.248Z,83.01
2018-01-25T12:21:08.187Z,83.11
2018-01-25T12:22:08.122Z,83.01
2018-01-25T12:23:08.062Z,83.11
2018-01-25T12:24:08.000Z,84.97
2018-01-25T12:25:07.940Z,84.34
2018-01-25T12:26:07.879Z,82.97
2018-01-25T12:27:07.817Z,83.35
2018-01-25T12:28:07.757Z,84.16
2018-01-25T12:29:07.695Z,83.73
2018-01-25T12:30:07.635Z,83.16
2018-01-25T12:31:07.574Z,84.34
2018-01-25T12:32:07.515Z,85.87
2018-01-25T12:33:07.455Z,86.06
2018-01-25T12:34:07.392Z,85.21
2018-01-25T12:35:07.332Z,86.06
2018-01-25T12:36:07.272Z,84.34
2018-01-25T12:37:07.212Z,83.87
2018-01-25T12:38:07.150Z,83.96
2018-01-25T12:39:07.093Z,86.06
2018-01-25T12:40:07.029Z,83.58
2018-01-25T12:41:06.968Z,85.11
2018-01-25T12:42:06.906Z,84.44
2018-01-25T12:43:06.847Z,83.58
2018-01-25T12:44:06.786Z,84.34
2018-01-25T12:45:06.727Z,83.67
2018-01-25T12:46:06.666Z,83.87
2018-01-25T12:47:06.628Z,83.87
2018-01-25T12:48:06.544Z,83.77
2018-01-25T12:49:06.485Z,82.82
2018-01-25T12:50:06.423Z,83.77
2018-01-25T12:51:06.411Z,82.34
2018-01-25T12:52:06.303Z,82.43